sensor_id;sensor_type;location;lat;lon;timestamp;temperature;humidity
18177;DHT22;9213;50.858;3.964;2023-05-19T00:02:01;15.30;39.80
18177;DHT22;9213;50.858;3.964;2023-05-19T00:04:30;15.20;39.90
18177;DHT22;9213;50.858;3.964;2023-05-19T00:06:59;15.20;40.10
18177;DHT22;9213;50.858;3.964;2023-05-19T00:09:28;15.20;40.20
18177;DHT22;9213;50.858;3.964;2023-05-19T00:11:56;15.10;40.30
18177;DHT22;9213;50.858;3.964;2023-05-19T00:14:23;15.00;40.40
18177;DHT22;9213;50.858;3.964;2023-05-19T00:16:51;15.00;40.20
18177;DHT22;9213;50.858;3.964;2023-05-19T00:19:20;15.00;40.20
18177;DHT22;9213;50.858;3.964;2023-05-19T00:21:48;14.90;40.30
18177;DHT22;9213;50.858;3.964;2023-05-19T00:24:17;14.90;40.50
18177;DHT22;9213;50.858;3.964;2023-05-19T00:26:44;14.90;40.80
18177;DHT22;9213;50.858;3.964;2023-05-19T00:29:10;14.90;40.90
18177;DHT22;9213;50.858;3.964;2023-05-19T00:31:37;14.90;40.90
18177;DHT22;9213;50.858;3.964;2023-05-19T00:34:05;14.80;41.10
18177;DHT22;9213;50.858;3.964;2023-05-19T00:36:32;14.70;41.30
18177;DHT22;9213;50.858;3.964;2023-05-19T00:38:59;14.70;41.50
18177;DHT22;9213;50.858;3.964;2023-05-19T00:41:27;14.70;41.70
18177;DHT22;9213;50.858;3.964;2023-05-19T00:43:54;14.60;41.80
18177;DHT22;9213;50.858;3.964;2023-05-19T00:46:21;14.60;41.80
18177;DHT22;9213;50.858;3.964;2023-05-19T00:48:48;14.60;41.90
18177;DHT22;9213;50.858;3.964;2023-05-19T00:51:16;14.50;41.70
18177;DHT22;9213;50.858;3.964;2023-05-19T00:53:45;14.50;42.00
18177;DHT22;9213;50.858;3.964;2023-05-19T00:56:13;14.50;42.20
18177;DHT22;9213;50.858;3.964;2023-05-19T00:58:43;14.50;42.20
18177;DHT22;9213;50.858;3.964;2023-05-19T01:01:10;14.40;42.00
18177;DHT22;9213;50.858;3.964;2023-05-19T01:03:39;14.40;42.20
18177;DHT22;9213;50.858;3.964;2023-05-19T01:06:07;14.30;42.40
18177;DHT22;9213;50.858;3.964;2023-05-19T01:08:35;14.40;42.40
18177;DHT22;9213;50.858;3.964;2023-05-19T01:11:02;14.30;42.40
18177;DHT22;9213;50.858;3.964;2023-05-19T01:13:29;14.30;42.50
18177;DHT22;9213;50.858;3.964;2023-05-19T01:16:01;14.30;42.60
18177;DHT22;9213;50.858;3.964;2023-05-19T01:18:37;14.30;42.60
18177;DHT22;9213;50.858;3.964;2023-05-19T01:21:39;14.30;42.40
18177;DHT22;9213;50.858;3.964;2023-05-19T01:24:29;14.30;42.40
18177;DHT22;9213;50.858;3.964;2023-05-19T01:27:23;14.30;42.30
18177;DHT22;9213;50.858;3.964;2023-05-19T01:30:20;14.30;42.20
18177;DHT22;9213;50.858;3.964;2023-05-19T01:32:52;14.30;42.50
18177;DHT22;9213;50.858;3.964;2023-05-19T01:35:20;14.20;42.30
18177;DHT22;9213;50.858;3.964;2023-05-19T01:37:49;14.20;42.30
18177;DHT22;9213;50.858;3.964;2023-05-19T01:40:17;14.10;42.40
18177;DHT22;9213;50.858;3.964;2023-05-19T01:42:45;14.10;43.30
18177;DHT22;9213;50.858;3.964;2023-05-19T01:45:14;14.10;42.60
18177;DHT22;9213;50.858;3.964;2023-05-19T01:47:46;14.20;42.50
18177;DHT22;9213;50.858;3.964;2023-05-19T01:50:14;14.10;42.60
18177;DHT22;9213;50.858;3.964;2023-05-19T01:52:41;14.10;42.40
18177;DHT22;9213;50.858;3.964;2023-05-19T01:55:08;14.10;42.50
18177;DHT22;9213;50.858;3.964;2023-05-19T01:57:45;14.10;42.60
18177;DHT22;9213;50.858;3.964;2023-05-19T02:00:17;14.20;42.60
18177;DHT22;9213;50.858;3.964;2023-05-19T02:02:56;14.10;42.60
18177;DHT22;9213;50.858;3.964;2023-05-19T02:05:36;14.10;42.60
18177;DHT22;9213;50.858;3.964;2023-05-19T02:08:10;14.10;42.60
18177;DHT22;9213;50.858;3.964;2023-05-19T02:10:40;14.10;42.70
18177;DHT22;9213;50.858;3.964;2023-05-19T02:13:12;14.00;42.60
18177;DHT22;9213;50.858;3.964;2023-05-19T02:15:42;14.00;42.70
18177;DHT22;9213;50.858;3.964;2023-05-19T02:18:10;14.00;42.70
18177;DHT22;9213;50.858;3.964;2023-05-19T02:20:38;14.00;42.70
18177;DHT22;9213;50.858;3.964;2023-05-19T02:23:05;14.00;42.80
18177;DHT22;9213;50.858;3.964;2023-05-19T02:25:32;13.90;42.70
18177;DHT22;9213;50.858;3.964;2023-05-19T02:27:59;13.90;42.70
18177;DHT22;9213;50.858;3.964;2023-05-19T02:30:26;13.90;42.90
18177;DHT22;9213;50.858;3.964;2023-05-19T02:32:54;13.90;42.90
18177;DHT22;9213;50.858;3.964;2023-05-19T02:35:21;13.90;43.00
18177;DHT22;9213;50.858;3.964;2023-05-19T02:37:48;13.90;43.10
18177;DHT22;9213;50.858;3.964;2023-05-19T02:40:15;13.90;43.10
18177;DHT22;9213;50.858;3.964;2023-05-19T02:42:42;13.80;43.10
18177;DHT22;9213;50.858;3.964;2023-05-19T02:45:10;13.80;43.00
18177;DHT22;9213;50.858;3.964;2023-05-19T02:47:37;13.80;43.10
18177;DHT22;9213;50.858;3.964;2023-05-19T02:50:06;13.80;43.10
18177;DHT22;9213;50.858;3.964;2023-05-19T02:52:33;13.80;43.10
18177;DHT22;9213;50.858;3.964;2023-05-19T02:55:00;13.70;43.30
18177;DHT22;9213;50.858;3.964;2023-05-19T02:57:28;13.70;43.40
18177;DHT22;9213;50.858;3.964;2023-05-19T02:59:56;13.70;43.60
18177;DHT22;9213;50.858;3.964;2023-05-19T03:02:23;13.60;43.40
18177;DHT22;9213;50.858;3.964;2023-05-19T03:04:49;13.60;43.60
18177;DHT22;9213;50.858;3.964;2023-05-19T03:07:18;13.60;43.60
18177;DHT22;9213;50.858;3.964;2023-05-19T03:09:49;13.60;43.80
18177;DHT22;9213;50.858;3.964;2023-05-19T03:12:16;13.60;43.80
18177;DHT22;9213;50.858;3.964;2023-05-19T03:14:43;13.60;43.90
18177;DHT22;9213;50.858;3.964;2023-05-19T03:17:10;13.50;44.10
18177;DHT22;9213;50.858;3.964;2023-05-19T03:19:37;13.50;44.30
18177;DHT22;9213;50.858;3.964;2023-05-19T03:22:04;13.50;44.40
18177;DHT22;9213;50.858;3.964;2023-05-19T03:24:32;13.50;44.60
18177;DHT22;9213;50.858;3.964;2023-05-19T03:27:00;13.40;44.70
18177;DHT22;9213;50.858;3.964;2023-05-19T03:29:29;13.40;44.70
18177;DHT22;9213;50.858;3.964;2023-05-19T03:31:56;13.30;44.90
18177;DHT22;9213;50.858;3.964;2023-05-19T03:34:24;13.30;45.00
18177;DHT22;9213;50.858;3.964;2023-05-19T03:36:51;13.30;45.10
18177;DHT22;9213;50.858;3.964;2023-05-19T03:39:18;13.20;45.30
18177;DHT22;9213;50.858;3.964;2023-05-19T03:41:46;13.10;45.50
18177;DHT22;9213;50.858;3.964;2023-05-19T03:44:13;13.10;45.60
18177;DHT22;9213;50.858;3.964;2023-05-19T03:46:40;13.00;45.60
18177;DHT22;9213;50.858;3.964;2023-05-19T03:49:06;13.00;46.60
18177;DHT22;9213;50.858;3.964;2023-05-19T03:51:33;13.00;46.10
18177;DHT22;9213;50.858;3.964;2023-05-19T03:54:01;12.90;46.40
18177;DHT22;9213;50.858;3.964;2023-05-19T03:56:29;13.00;46.50
18177;DHT22;9213;50.858;3.964;2023-05-19T03:58:58;12.90;46.80
18177;DHT22;9213;50.858;3.964;2023-05-19T04:01:25;12.90;47.00
18177;DHT22;9213;50.858;3.964;2023-05-19T04:03:52;12.90;47.00
18177;DHT22;9213;50.858;3.964;2023-05-19T04:06:19;12.90;47.20
18177;DHT22;9213;50.858;3.964;2023-05-19T04:08:46;12.90;47.30
18177;DHT22;9213;50.858;3.964;2023-05-19T04:11:13;12.90;47.30
18177;DHT22;9213;50.858;3.964;2023-05-19T04:13:40;12.90;47.40
18177;DHT22;9213;50.858;3.964;2023-05-19T04:16:08;12.80;47.30
18177;DHT22;9213;50.858;3.964;2023-05-19T04:18:35;12.90;47.60
18177;DHT22;9213;50.858;3.964;2023-05-19T04:21:02;12.90;47.70
18177;DHT22;9213;50.858;3.964;2023-05-19T04:23:30;12.90;47.70
18177;DHT22;9213;50.858;3.964;2023-05-19T04:25:57;12.90;47.80
18177;DHT22;9213;50.858;3.964;2023-05-19T04:28:26;12.90;47.80
18177;DHT22;9213;50.858;3.964;2023-05-19T04:30:53;12.90;47.80
18177;DHT22;9213;50.858;3.964;2023-05-19T04:33:24;12.90;47.90
18177;DHT22;9213;50.858;3.964;2023-05-19T04:35:53;12.90;48.10
18177;DHT22;9213;50.858;3.964;2023-05-19T04:38:20;12.90;48.00
18177;DHT22;9213;50.858;3.964;2023-05-19T04:40:47;13.00;48.10
18177;DHT22;9213;50.858;3.964;2023-05-19T04:43:16;13.00;48.00
18177;DHT22;9213;50.858;3.964;2023-05-19T04:45:43;13.10;48.20
18177;DHT22;9213;50.858;3.964;2023-05-19T04:48:11;13.10;48.20
18177;DHT22;9213;50.858;3.964;2023-05-19T04:50:40;13.20;48.10
18177;DHT22;9213;50.858;3.964;2023-05-19T04:53:13;13.20;48.00
18177;DHT22;9213;50.858;3.964;2023-05-19T04:55:40;13.20;47.80
18177;DHT22;9213;50.858;3.964;2023-05-19T04:58:07;13.20;47.90
18177;DHT22;9213;50.858;3.964;2023-05-19T05:00:35;13.20;48.00
18177;DHT22;9213;50.858;3.964;2023-05-19T05:03:02;13.30;48.10
18177;DHT22;9213;50.858;3.964;2023-05-19T05:05:30;13.30;48.20
18177;DHT22;9213;50.858;3.964;2023-05-19T05:07:59;13.30;48.00
18177;DHT22;9213;50.858;3.964;2023-05-19T05:10:26;13.40;48.20
18177;DHT22;9213;50.858;3.964;2023-05-19T05:12:53;13.40;48.20
18177;DHT22;9213;50.858;3.964;2023-05-19T05:15:21;13.50;48.30
18177;DHT22;9213;50.858;3.964;2023-05-19T05:17:49;13.50;48.30
18177;DHT22;9213;50.858;3.964;2023-05-19T05:20:16;13.60;48.10
18177;DHT22;9213;50.858;3.964;2023-05-19T05:22:44;13.60;48.10
18177;DHT22;9213;50.858;3.964;2023-05-19T05:25:14;13.60;48.10
18177;DHT22;9213;50.858;3.964;2023-05-19T05:27:41;13.70;48.40
18177;DHT22;9213;50.858;3.964;2023-05-19T05:30:08;13.90;48.20
18177;DHT22;9213;50.858;3.964;2023-05-19T05:32:36;14.00;48.40
18177;DHT22;9213;50.858;3.964;2023-05-19T05:35:03;14.00;47.60
18177;DHT22;9213;50.858;3.964;2023-05-19T05:37:30;14.10;47.60
18177;DHT22;9213;50.858;3.964;2023-05-19T05:39:57;14.10;47.60
18177;DHT22;9213;50.858;3.964;2023-05-19T05:42:25;14.20;47.50
18177;DHT22;9213;50.858;3.964;2023-05-19T05:44:52;14.20;47.50
18177;DHT22;9213;50.858;3.964;2023-05-19T05:47:19;14.20;47.40
18177;DHT22;9213;50.858;3.964;2023-05-19T05:49:47;14.20;47.30
18177;DHT22;9213;50.858;3.964;2023-05-19T05:52:14;14.30;47.30
18177;DHT22;9213;50.858;3.964;2023-05-19T05:54:44;14.30;47.40
18177;DHT22;9213;50.858;3.964;2023-05-19T05:57:12;14.30;47.30
18177;DHT22;9213;50.858;3.964;2023-05-19T05:59:40;14.30;47.20
18177;DHT22;9213;50.858;3.964;2023-05-19T06:02:09;14.40;47.10
18177;DHT22;9213;50.858;3.964;2023-05-19T06:04:36;14.40;46.90
18177;DHT22;9213;50.858;3.964;2023-05-19T06:07:03;14.50;46.90
18177;DHT22;9213;50.858;3.964;2023-05-19T06:09:30;14.50;46.90
18177;DHT22;9213;50.858;3.964;2023-05-19T06:11:57;14.60;46.90
18177;DHT22;9213;50.858;3.964;2023-05-19T06:14:25;14.70;46.70
18177;DHT22;9213;50.858;3.964;2023-05-19T06:16:53;14.80;46.80
18177;DHT22;9213;50.858;3.964;2023-05-19T06:19:20;14.90;46.90
18177;DHT22;9213;50.858;3.964;2023-05-19T06:21:49;15.10;46.20
18177;DHT22;9213;50.858;3.964;2023-05-19T06:24:16;15.30;45.60
18177;DHT22;9213;50.858;3.964;2023-05-19T06:26:43;15.40;45.30
18177;DHT22;9213;50.858;3.964;2023-05-19T06:29:10;15.40;45.10
18177;DHT22;9213;50.858;3.964;2023-05-19T06:31:37;15.50;45.20
18177;DHT22;9213;50.858;3.964;2023-05-19T06:34:05;15.50;45.10
18177;DHT22;9213;50.858;3.964;2023-05-19T06:36:32;15.60;45.20
18177;DHT22;9213;50.858;3.964;2023-05-19T06:38:59;15.80;45.20
18177;DHT22;9213;50.858;3.964;2023-05-19T06:41:26;16.10;45.80
18177;DHT22;9213;50.858;3.964;2023-05-19T06:43:53;16.50;44.50
18177;DHT22;9213;50.858;3.964;2023-05-19T06:46:21;17.10;44.30
18177;DHT22;9213;50.858;3.964;2023-05-19T06:48:47;18.30;42.60
18177;DHT22;9213;50.858;3.964;2023-05-19T06:51:16;19.70;39.80
18177;DHT22;9213;50.858;3.964;2023-05-19T06:53:46;21.30;37.20
18177;DHT22;9213;50.858;3.964;2023-05-19T06:56:13;22.70;34.70
18177;DHT22;9213;50.858;3.964;2023-05-19T06:58:41;23.90;32.40
18177;DHT22;9213;50.858;3.964;2023-05-19T07:01:08;25.00;31.20
18177;DHT22;9213;50.858;3.964;2023-05-19T07:03:35;26.10;28.50
18177;DHT22;9213;50.858;3.964;2023-05-19T07:06:02;27.10;27.10
18177;DHT22;9213;50.858;3.964;2023-05-19T07:08:30;28.00;25.70
18177;DHT22;9213;50.858;3.964;2023-05-19T07:10:57;28.70;23.10
18177;DHT22;9213;50.858;3.964;2023-05-19T07:13:24;29.30;22.60
18177;DHT22;9213;50.858;3.964;2023-05-19T07:15:51;29.70;22.00
18177;DHT22;9213;50.858;3.964;2023-05-19T07:18:20;30.20;21.30
18177;DHT22;9213;50.858;3.964;2023-05-19T07:20:47;30.60;20.20
18177;DHT22;9213;50.858;3.964;2023-05-19T07:23:14;30.90;19.90
18177;DHT22;9213;50.858;3.964;2023-05-19T07:25:42;31.20;20.00
18177;DHT22;9213;50.858;3.964;2023-05-19T07:28:09;31.60;19.30
18177;DHT22;9213;50.858;3.964;2023-05-19T07:30:36;31.80;18.60
18177;DHT22;9213;50.858;3.964;2023-05-19T07:33:03;31.70;18.60
18177;DHT22;9213;50.858;3.964;2023-05-19T07:35:31;31.60;18.90
18177;DHT22;9213;50.858;3.964;2023-05-19T07:37:58;31.60;18.90
18177;DHT22;9213;50.858;3.964;2023-05-19T07:40:25;31.50;18.70
18177;DHT22;9213;50.858;3.964;2023-05-19T07:42:53;31.40;18.80
18177;DHT22;9213;50.858;3.964;2023-05-19T07:45:20;31.40;18.80
18177;DHT22;9213;50.858;3.964;2023-05-19T07:47:47;31.40;18.50
18177;DHT22;9213;50.858;3.964;2023-05-19T07:50:14;31.30;18.70
18177;DHT22;9213;50.858;3.964;2023-05-19T07:52:41;31.10;18.80
18177;DHT22;9213;50.858;3.964;2023-05-19T07:55:07;30.80;18.80
18177;DHT22;9213;50.858;3.964;2023-05-19T07:57:34;30.40;19.10
18177;DHT22;9213;50.858;3.964;2023-05-19T08:00:04;30.10;19.60
18177;DHT22;9213;50.858;3.964;2023-05-19T08:02:34;30.10;20.00
18177;DHT22;9213;50.858;3.964;2023-05-19T08:05:01;30.00;20.00
18177;DHT22;9213;50.858;3.964;2023-05-19T08:07:28;30.00;20.00
18177;DHT22;9213;50.858;3.964;2023-05-19T08:09:55;30.00;20.00
18177;DHT22;9213;50.858;3.964;2023-05-19T08:12:22;30.00;20.00
18177;DHT22;9213;50.858;3.964;2023-05-19T08:14:49;30.20;19.90
18177;DHT22;9213;50.858;3.964;2023-05-19T08:17:18;30.40;19.90
18177;DHT22;9213;50.858;3.964;2023-05-19T08:19:45;30.60;19.40
18177;DHT22;9213;50.858;3.964;2023-05-19T08:22:12;30.70;19.20
18177;DHT22;9213;50.858;3.964;2023-05-19T08:24:39;31.00;19.40
18177;DHT22;9213;50.858;3.964;2023-05-19T08:27:07;31.40;19.30
18177;DHT22;9213;50.858;3.964;2023-05-19T08:29:34;31.80;18.30
18177;DHT22;9213;50.858;3.964;2023-05-19T08:32:02;32.20;18.30
18177;DHT22;9213;50.858;3.964;2023-05-19T08:34:31;32.50;18.00
18177;DHT22;9213;50.858;3.964;2023-05-19T08:36:58;32.60;17.40
18177;DHT22;9213;50.858;3.964;2023-05-19T08:39:25;32.70;17.50
18177;DHT22;9213;50.858;3.964;2023-05-19T08:41:52;32.80;17.00
18177;DHT22;9213;50.858;3.964;2023-05-19T08:44:19;32.90;17.30
18177;DHT22;9213;50.858;3.964;2023-05-19T08:46:46;32.90;17.20
18177;DHT22;9213;50.858;3.964;2023-05-19T08:49:14;32.80;16.80
18177;DHT22;9213;50.858;3.964;2023-05-19T08:51:49;32.70;16.60
18177;DHT22;9213;50.858;3.964;2023-05-19T08:54:18;32.60;17.40
18177;DHT22;9213;50.858;3.964;2023-05-19T08:56:45;32.60;18.00
18177;DHT22;9213;50.858;3.964;2023-05-19T08:59:13;32.70;17.10
18177;DHT22;9213;50.858;3.964;2023-05-19T09:01:41;32.70;16.90
18177;DHT22;9213;50.858;3.964;2023-05-19T09:04:09;32.80;16.80
18177;DHT22;9213;50.858;3.964;2023-05-19T09:06:36;32.90;16.80
18177;DHT22;9213;50.858;3.964;2023-05-19T09:09:06;32.90;16.50
18177;DHT22;9213;50.858;3.964;2023-05-19T09:11:34;32.80;17.00
18177;DHT22;9213;50.858;3.964;2023-05-19T09:14:02;32.70;17.30
18177;DHT22;9213;50.858;3.964;2023-05-19T09:16:29;32.50;17.50
18177;DHT22;9213;50.858;3.964;2023-05-19T09:18:57;32.30;17.60
18177;DHT22;9213;50.858;3.964;2023-05-19T09:21:28;32.20;17.20
18177;DHT22;9213;50.858;3.964;2023-05-19T09:23:56;32.10;17.50
18177;DHT22;9213;50.858;3.964;2023-05-19T09:26:35;31.80;17.40
18177;DHT22;9213;50.858;3.964;2023-05-19T09:29:10;31.80;17.30
18177;DHT22;9213;50.858;3.964;2023-05-19T09:31:37;31.70;17.30
18177;DHT22;9213;50.858;3.964;2023-05-19T09:34:04;31.60;17.40
18177;DHT22;9213;50.858;3.964;2023-05-19T09:36:38;31.50;17.60
18177;DHT22;9213;50.858;3.964;2023-05-19T09:39:12;31.30;18.40
18177;DHT22;9213;50.858;3.964;2023-05-19T09:41:40;31.30;18.00
18177;DHT22;9213;50.858;3.964;2023-05-19T09:44:11;31.20;17.70
18177;DHT22;9213;50.858;3.964;2023-05-19T09:46:46;31.30;18.10
18177;DHT22;9213;50.858;3.964;2023-05-19T09:49:18;31.30;18.60
18177;DHT22;9213;50.858;3.964;2023-05-19T09:51:45;31.30;18.80
18177;DHT22;9213;50.858;3.964;2023-05-19T09:54:14;31.30;18.70
18177;DHT22;9213;50.858;3.964;2023-05-19T09:56:43;31.20;18.40
18177;DHT22;9213;50.858;3.964;2023-05-19T09:59:10;31.00;18.80
18177;DHT22;9213;50.858;3.964;2023-05-19T10:01:39;30.90;18.00
18177;DHT22;9213;50.858;3.964;2023-05-19T10:04:08;30.80;18.40
18177;DHT22;9213;50.858;3.964;2023-05-19T10:06:35;30.70;18.70
18177;DHT22;9213;50.858;3.964;2023-05-19T10:09:03;30.70;19.00
18177;DHT22;9213;50.858;3.964;2023-05-19T10:11:31;30.70;19.20
18177;DHT22;9213;50.858;3.964;2023-05-19T10:13:59;30.80;18.70
18177;DHT22;9213;50.858;3.964;2023-05-19T10:16:26;30.80;17.60
18177;DHT22;9213;50.858;3.964;2023-05-19T10:18:56;30.80;18.30
18177;DHT22;9213;50.858;3.964;2023-05-19T10:21:24;30.80;17.60
18177;DHT22;9213;50.858;3.964;2023-05-19T10:23:51;30.90;17.90
18177;DHT22;9213;50.858;3.964;2023-05-19T10:26:18;31.00;18.30
18177;DHT22;9213;50.858;3.964;2023-05-19T10:28:46;31.10;17.50
18177;DHT22;9213;50.858;3.964;2023-05-19T10:31:18;31.20;18.00
18177;DHT22;9213;50.858;3.964;2023-05-19T10:33:58;31.20;17.40
18177;DHT22;9213;50.858;3.964;2023-05-19T10:36:37;31.20;17.90
18177;DHT22;9213;50.858;3.964;2023-05-19T10:39:10;31.30;18.20
18177;DHT22;9213;50.858;3.964;2023-05-19T10:41:45;31.10;17.70
18177;DHT22;9213;50.858;3.964;2023-05-19T10:44:18;30.80;17.60
18177;DHT22;9213;50.858;3.964;2023-05-19T10:46:50;30.30;17.90
18177;DHT22;9213;50.858;3.964;2023-05-19T10:49:19;30.00;18.40
18177;DHT22;9213;50.858;3.964;2023-05-19T10:51:47;29.80;18.80
18177;DHT22;9213;50.858;3.964;2023-05-19T10:54:14;29.70;19.10
18177;DHT22;9213;50.858;3.964;2023-05-19T10:56:43;29.70;18.40
18177;DHT22;9213;50.858;3.964;2023-05-19T10:59:31;29.50;18.70
18177;DHT22;9213;50.858;3.964;2023-05-19T11:02:04;29.50;19.30
18177;DHT22;9213;50.858;3.964;2023-05-19T11:04:47;29.60;19.50
18177;DHT22;9213;50.858;3.964;2023-05-19T11:07:16;30.00;20.00
18177;DHT22;9213;50.858;3.964;2023-05-19T11:09:48;30.20;19.20
18177;DHT22;9213;50.858;3.964;2023-05-19T11:12:19;30.30;19.20
18177;DHT22;9213;50.858;3.964;2023-05-19T11:14:47;30.60;18.40
18177;DHT22;9213;50.858;3.964;2023-05-19T11:17:15;30.60;18.30
18177;DHT22;9213;50.858;3.964;2023-05-19T11:19:52;30.80;18.30
18177;DHT22;9213;50.858;3.964;2023-05-19T11:22:22;31.10;19.00
18177;DHT22;9213;50.858;3.964;2023-05-19T11:24:50;31.20;17.50
18177;DHT22;9213;50.858;3.964;2023-05-19T11:27:22;31.10;18.00
18177;DHT22;9213;50.858;3.964;2023-05-19T11:29:51;31.10;18.40
18177;DHT22;9213;50.858;3.964;2023-05-19T11:32:20;31.10;18.00
18177;DHT22;9213;50.858;3.964;2023-05-19T11:34:48;31.20;18.00
18177;DHT22;9213;50.858;3.964;2023-05-19T11:37:15;31.20;17.80
18177;DHT22;9213;50.858;3.964;2023-05-19T11:39:44;31.00;17.80
18177;DHT22;9213;50.858;3.964;2023-05-19T11:42:12;30.80;17.60
18177;DHT22;9213;50.858;3.964;2023-05-19T11:44:39;30.50;18.00
18177;DHT22;9213;50.858;3.964;2023-05-19T11:47:07;30.50;18.70
18177;DHT22;9213;50.858;3.964;2023-05-19T11:49:36;30.50;18.50
18177;DHT22;9213;50.858;3.964;2023-05-19T11:52:03;30.60;18.10
18177;DHT22;9213;50.858;3.964;2023-05-19T11:54:31;30.80;18.10
18177;DHT22;9213;50.858;3.964;2023-05-19T11:56:59;31.00;18.10
18177;DHT22;9213;50.858;3.964;2023-05-19T11:59:31;31.20;17.60
18177;DHT22;9213;50.858;3.964;2023-05-19T12:02:00;31.20;17.60
18177;DHT22;9213;50.858;3.964;2023-05-19T12:04:29;31.00;17.10
18177;DHT22;9213;50.858;3.964;2023-05-19T12:06:57;30.90;18.00
18177;DHT22;9213;50.858;3.964;2023-05-19T12:09:27;30.70;18.60
18177;DHT22;9213;50.858;3.964;2023-05-19T12:11:54;30.60;18.20
18177;DHT22;9213;50.858;3.964;2023-05-19T12:14:21;30.70;18.90
18177;DHT22;9213;50.858;3.964;2023-05-19T12:16:49;30.90;19.00
18177;DHT22;9213;50.858;3.964;2023-05-19T12:19:15;31.00;18.40
18177;DHT22;9213;50.858;3.964;2023-05-19T12:21:42;31.20;17.80
18177;DHT22;9213;50.858;3.964;2023-05-19T12:24:11;31.20;17.80
18177;DHT22;9213;50.858;3.964;2023-05-19T12:26:39;31.10;17.90
18177;DHT22;9213;50.858;3.964;2023-05-19T12:29:06;31.00;17.80
18177;DHT22;9213;50.858;3.964;2023-05-19T12:31:33;30.90;17.80
18177;DHT22;9213;50.858;3.964;2023-05-19T12:34:00;30.90;17.30
18177;DHT22;9213;50.858;3.964;2023-05-19T12:36:27;30.90;17.90
18177;DHT22;9213;50.858;3.964;2023-05-19T12:38:56;30.90;17.60
18177;DHT22;9213;50.858;3.964;2023-05-19T12:41:24;30.80;17.30
18177;DHT22;9213;50.858;3.964;2023-05-19T12:43:53;30.70;17.20
18177;DHT22;9213;50.858;3.964;2023-05-19T12:46:20;30.70;17.20
18177;DHT22;9213;50.858;3.964;2023-05-19T12:48:47;30.60;17.50
18177;DHT22;9213;50.858;3.964;2023-05-19T12:51:18;30.50;18.00
18177;DHT22;9213;50.858;3.964;2023-05-19T12:53:45;30.40;18.10
18177;DHT22;9213;50.858;3.964;2023-05-19T12:56:14;30.30;18.30
18177;DHT22;9213;50.858;3.964;2023-05-19T12:58:42;30.30;18.20
18177;DHT22;9213;50.858;3.964;2023-05-19T13:01:15;30.30;17.90
18177;DHT22;9213;50.858;3.964;2023-05-19T13:03:42;30.30;19.00
18177;DHT22;9213;50.858;3.964;2023-05-19T13:06:09;30.30;19.00
18177;DHT22;9213;50.858;3.964;2023-05-19T13:08:37;30.30;19.10
18177;DHT22;9213;50.858;3.964;2023-05-19T13:11:04;30.30;18.20
18177;DHT22;9213;50.858;3.964;2023-05-19T13:13:31;30.30;19.20
18177;DHT22;9213;50.858;3.964;2023-05-19T13:16:00;30.40;17.60
18177;DHT22;9213;50.858;3.964;2023-05-19T13:18:27;30.40;17.80
18177;DHT22;9213;50.858;3.964;2023-05-19T13:20:56;30.40;17.60
18177;DHT22;9213;50.858;3.964;2023-05-19T13:23:23;30.40;18.30
18177;DHT22;9213;50.858;3.964;2023-05-19T13:25:50;30.40;18.40
18177;DHT22;9213;50.858;3.964;2023-05-19T13:28:17;30.30;18.40
18177;DHT22;9213;50.858;3.964;2023-05-19T13:30:44;30.30;18.30
18177;DHT22;9213;50.858;3.964;2023-05-19T13:33:13;30.20;18.60
18177;DHT22;9213;50.858;3.964;2023-05-19T13:35:40;30.10;18.30
18177;DHT22;9213;50.858;3.964;2023-05-19T13:38:07;30.10;17.80
18177;DHT22;9213;50.858;3.964;2023-05-19T13:40:35;29.90;17.60
18177;DHT22;9213;50.858;3.964;2023-05-19T13:43:02;29.70;17.70
18177;DHT22;9213;50.858;3.964;2023-05-19T13:45:29;29.70;19.20
18177;DHT22;9213;50.858;3.964;2023-05-19T13:47:56;29.60;17.80
18177;DHT22;9213;50.858;3.964;2023-05-19T13:50:25;29.60;18.50
18177;DHT22;9213;50.858;3.964;2023-05-19T13:52:52;29.50;17.70
18177;DHT22;9213;50.858;3.964;2023-05-19T13:55:19;29.60;17.90
18177;DHT22;9213;50.858;3.964;2023-05-19T13:57:46;29.50;18.10
18177;DHT22;9213;50.858;3.964;2023-05-19T14:00:14;29.50;18.10
18177;DHT22;9213;50.858;3.964;2023-05-19T14:02:42;29.50;18.70
18177;DHT22;9213;50.858;3.964;2023-05-19T14:05:09;29.50;18.40
18177;DHT22;9213;50.858;3.964;2023-05-19T14:07:37;29.50;19.00
18177;DHT22;9213;50.858;3.964;2023-05-19T14:10:05;29.50;19.00
18177;DHT22;9213;50.858;3.964;2023-05-19T14:12:33;29.40;18.70
18177;DHT22;9213;50.858;3.964;2023-05-19T14:15:00;29.30;18.20
18177;DHT22;9213;50.858;3.964;2023-05-19T14:17:27;29.20;18.50
18177;DHT22;9213;50.858;3.964;2023-05-19T14:19:54;29.10;18.60
18177;DHT22;9213;50.858;3.964;2023-05-19T14:22:21;29.10;19.10
18177;DHT22;9213;50.858;3.964;2023-05-19T14:24:49;29.20;19.00
18177;DHT22;9213;50.858;3.964;2023-05-19T14:27:16;29.20;19.00
18177;DHT22;9213;50.858;3.964;2023-05-19T14:29:43;29.20;18.70
18177;DHT22;9213;50.858;3.964;2023-05-19T14:32:10;29.20;18.60
18177;DHT22;9213;50.858;3.964;2023-05-19T14:34:37;29.00;18.70
18177;DHT22;9213;50.858;3.964;2023-05-19T14:37:04;28.80;18.30
18177;DHT22;9213;50.858;3.964;2023-05-19T14:39:31;28.70;18.50
18177;DHT22;9213;50.858;3.964;2023-05-19T14:41:59;28.60;18.70
18177;DHT22;9213;50.858;3.964;2023-05-19T14:44:29;28.50;18.80
18177;DHT22;9213;50.858;3.964;2023-05-19T14:46:57;28.40;18.50
18177;DHT22;9213;50.858;3.964;2023-05-19T14:49:24;28.30;19.20
18177;DHT22;9213;50.858;3.964;2023-05-19T14:51:51;28.30;19.00
18177;DHT22;9213;50.858;3.964;2023-05-19T14:54:18;28.20;19.10
18177;DHT22;9213;50.858;3.964;2023-05-19T14:56:45;28.20;18.50
18177;DHT22;9213;50.858;3.964;2023-05-19T14:59:13;28.10;18.80
18177;DHT22;9213;50.858;3.964;2023-05-19T15:01:40;27.90;19.00
18177;DHT22;9213;50.858;3.964;2023-05-19T15:04:07;27.90;19.50
18177;DHT22;9213;50.858;3.964;2023-05-19T15:06:34;27.90;19.50
18177;DHT22;9213;50.858;3.964;2023-05-19T15:09:01;28.10;20.50
18177;DHT22;9213;50.858;3.964;2023-05-19T15:11:28;28.10;19.30
18177;DHT22;9213;50.858;3.964;2023-05-19T15:13:54;28.00;19.50
18177;DHT22;9213;50.858;3.964;2023-05-19T15:16:23;27.90;19.40
18177;DHT22;9213;50.858;3.964;2023-05-19T15:18:50;27.90;19.50
18177;DHT22;9213;50.858;3.964;2023-05-19T15:21:17;27.80;19.30
18177;DHT22;9213;50.858;3.964;2023-05-19T15:23:43;27.80;19.00
18177;DHT22;9213;50.858;3.964;2023-05-19T15:26:10;27.80;19.20
18177;DHT22;9213;50.858;3.964;2023-05-19T15:28:37;27.90;19.10
18177;DHT22;9213;50.858;3.964;2023-05-19T15:31:04;27.90;19.40
18177;DHT22;9213;50.858;3.964;2023-05-19T15:33:32;27.90;18.80
18177;DHT22;9213;50.858;3.964;2023-05-19T15:35:59;27.80;19.60
18177;DHT22;9213;50.858;3.964;2023-05-19T15:38:26;27.80;19.50
18177;DHT22;9213;50.858;3.964;2023-05-19T15:40:53;27.70;19.50
18177;DHT22;9213;50.858;3.964;2023-05-19T15:43:20;27.70;19.90
18177;DHT22;9213;50.858;3.964;2023-05-19T15:45:47;27.60;19.00
18177;DHT22;9213;50.858;3.964;2023-05-19T15:48:16;27.50;19.80
18177;DHT22;9213;50.858;3.964;2023-05-19T15:50:45;27.30;19.00
18177;DHT22;9213;50.858;3.964;2023-05-19T15:53:12;27.20;19.70